Time;durP1;ratioP1;P1;durP2;ratioP2;P2;SDS_P1;SDS_P2;PMS_P1;PMS_P2;Temp;Humidity;BMP_temperature;BMP_pressure;BME280_temperature;BME280_humidity;BME280_pressure;Samples;Min_cycle;Max_cycle;Signal;HPM_P1;HPM_P2
2021/04/04 00:02:00;;;;;;;6.63;0.93;;;;;;;;;;5112945;28;20550;-56
2021/04/04 00:04:27;;;;;;;3.77;0.80;;;;;;;;;;5113490;28;20055;-56
2021/04/04 00:06:54;;;;;;;7.27;1.10;;;;;;;;;;5113361;28;20027;-56
2021/04/04 00:09:21;;;;;;;4.23;0.80;;;;;;;;;;5113414;28;20080;-55
2021/04/04 00:11:51;;;;;;;3.97;1.00;;;;;;;;;;5113362;28;20024;-56
2021/04/04 00:14:18;;;;;;;3.90;0.80;;;;;;;;;;5113388;28;20032;-56
2021/04/04 00:16:45;;;;;;;3.77;0.80;;;;;;;;;;5112887;28;20458;-56
2021/04/04 00:19:12;;;;;;;3.40;0.67;;;;;;;;;;5113245;28;20382;-56
2021/04/04 00:21:39;;;;;;;2.83;0.87;;;;;;;;;;5113327;28;20024;-55
2021/04/04 00:24:07;;;;;;;4.33;1.50;;;;;;;;;;5113244;28;20050;-56
2021/04/04 00:26:34;;;;;;;1.40;0.80;;;;;;;;;;5113325;28;20027;-56
2021/04/04 00:29:02;;;;;;;7.67;1.70;;;;;;;;;;5113464;28;20078;-56
2021/04/04 00:31:28;;;;;;;4.83;0.97;;;;;;;;;;5113202;28;20059;-56
2021/04/04 00:33:55;;;;;;;2.37;0.90;;;;;;;;;;5113197;28;20020;-56
2021/04/04 00:36:22;;;;;;;5.73;1.20;;;;;;;;;;5113182;28;20084;-56
2021/04/04 00:38:49;;;;;;;2.37;1.00;;;;;;;;;;5113425;28;20048;-56
2021/04/04 00:41:15;;;;;;;1.73;0.70;;;;;;;;;;5112981;28;20038;-56
2021/04/04 00:43:42;;;;;;;2.43;1.00;;;;;;;;;;5113115;28;20039;-55
2021/04/04 00:46:09;;;;;;;2.60;0.90;;;;;;;;;;5113150;28;20105;-55
2021/04/04 00:48:36;;;;;;;4.20;1.00;;;;;;;;;;5113001;28;20088;-55
2021/04/04 00:51:03;;;;;;;5.07;1.10;;;;;;;;;;5113023;28;20035;-55
2021/04/04 00:53:29;;;;;;;2.87;0.80;;;;;;;;;;5113279;28;20027;-55
2021/04/04 00:55:56;;;;;;;3.73;1.23;;;;;;;;;;5113105;28;20386;-55
2021/04/04 00:58:23;;;;;;;3.07;1.20;;;;;;;;;;5112923;28;20035;-55
2021/04/04 01:00:50;;;;;;;6.00;1.50;;;;;;;;;;5112808;28;20097;-55
2021/04/04 01:03:17;;;;;;;9.33;1.30;;;;;;;;;;5112895;28;20047;-55
2021/04/04 01:05:48;;;;;;;9.30;1.73;;;;;;;;;;5112796;28;20077;-55
2021/04/04 01:08:14;;;;;;;4.77;1.80;;;;;;;;;;5112868;28;20020;-55
2021/04/04 01:10:43;;;;;;;4.93;1.10;;;;;;;;;;5112866;28;20031;-55
2021/04/04 01:13:22;;;;;;;3.83;1.60;;;;;;;;;;5113675;28;20031;-55
2021/04/04 01:15:55;;;;;;;9.23;1.70;;;;;;;;;;5116590;28;20050;-55
2021/04/04 01:18:27;;;;;;;7.13;1.30;;;;;;;;;;5116419;27;20055;-55
2021/04/04 01:20:56;;;;;;;7.37;1.50;;;;;;;;;;5116444;28;20031;-55
2021/04/04 01:23:41;;;;;;;7.03;2.30;;;;;;;;;;5116542;28;20032;-55
2021/04/04 01:26:08;;;;;;;7.43;1.57;;;;;;;;;;5116510;28;20083;-55
2021/04/04 01:28:43;;;;;;;17.37;4.87;;;;;;;;;;5116421;28;20024;-55
2021/04/04 01:31:11;;;;;;;12.47;2.50;;;;;;;;;;5116402;28;20074;-55
2021/04/04 01:33:38;;;;;;;4.90;2.20;;;;;;;;;;5116318;28;20091;-55
2021/04/04 01:36:08;;;;;;;13.20;1.70;;;;;;;;;;5116258;28;20032;-55
2021/04/04 01:38:37;;;;;;;8.20;3.73;;;;;;;;;;5116253;28;20348;-55
2021/04/04 01:41:25;;;;;;;9.87;2.70;;;;;;;;;;5116097;28;20517;-55
2021/04/04 01:43:53;;;;;;;10.47;3.87;;;;;;;;;;5116043;28;20031;-55
2021/04/04 01:46:21;;;;;;;28.67;5.00;;;;;;;;;;5116125;28;20110;-55
2021/04/04 01:48:48;;;;;;;16.37;5.47;;;;;;;;;;5116053;28;20039;-55
2021/04/04 01:51:15;;;;;;;20.47;6.53;;;;;;;;;;5116026;28;20023;-55
2021/04/04 01:53:42;;;;;;;17.67;5.17;;;;;;;;;;5115899;28;20030;-55
2021/04/04 01:56:09;;;;;;;19.67;6.43;;;;;;;;;;5116039;28;20106;-55
2021/04/04 01:58:38;;;;;;;38.00;8.27;;;;;;;;;;5115940;28;20026;-55
2021/04/04 02:01:06;;;;;;;49.27;13.70;;;;;;;;;;5115714;28;20042;-55
2021/04/04 02:03:34;;;;;;;32.37;9.50;;;;;;;;;;5115752;28;20193;-55
2021/04/04 02:06:01;;;;;;;33.87;9.47;;;;;;;;;;5115668;28;20028;-55
2021/04/04 02:08:28;;;;;;;26.37;8.23;;;;;;;;;;5115712;28;20045;-55
2021/04/04 02:10:56;;;;;;;24.47;6.93;;;;;;;;;;5115599;28;20023;-55
2021/04/04 02:13:25;;;;;;;16.13;5.90;;;;;;;;;;5115457;28;20020;-55
2021/04/04 02:15:52;;;;;;;15.33;5.33;;;;;;;;;;5115427;28;20028;-55
2021/04/04 02:18:19;;;;;;;7.23;3.10;;;;;;;;;;5115223;27;20044;-55
2021/04/04 02:20:48;;;;;;;5.03;2.03;;;;;;;;;;5115616;28;20424;-55
2021/04/04 02:23:15;;;;;;;3.13;1.60;;;;;;;;;;5115320;28;20028;-55
2021/04/04 02:25:42;;;;;;;6.70;1.80;;;;;;;;;;5114860;28;20023;-55
2021/04/04 02:28:09;;;;;;;4.30;1.50;;;;;;;;;;5115249;28;20054;-55
2021/04/04 02:30:36;;;;;;;6.93;1.70;;;;;;;;;;5096870;28;20502;-55
2021/04/04 02:33:13;;;;;;;4.20;1.53;;;;;;;;;;5115033;28;20482;-55
2021/04/04 02:35:42;;;;;;;3.43;1.40;;;;;;;;;;5115190;28;20019;-55
2021/04/04 02:38:11;;;;;;;4.37;1.40;;;;;;;;;;5114964;28;20039;-55
2021/04/04 02:40:39;;;;;;;4.03;1.33;;;;;;;;;;5115211;28;20080;-55
2021/04/04 02:43:07;;;;;;;5.97;1.40;;;;;;;;;;5114827;28;20474;-55
2021/04/04 02:45:36;;;;;;;5.73;2.07;;;;;;;;;;5114908;28;20107;-55
2021/04/04 02:48:04;;;;;;;4.93;1.47;;;;;;;;;;5114929;28;20035;-55
2021/04/04 02:50:32;;;;;;;4.40;1.63;;;;;;;;;;5114890;28;20030;-55
2021/04/04 02:53:00;;;;;;;5.23;1.53;;;;;;;;;;5114850;28;20535;-55
2021/04/04 02:55:29;;;;;;;6.37;1.50;;;;;;;;;;5114801;28;20027;-55
2021/04/04 02:57:56;;;;;;;2.87;1.40;;;;;;;;;;5114761;28;20055;-55
2021/04/04 03:00:23;;;;;;;5.87;1.57;;;;;;;;;;5114783;28;20064;-55
2021/04/04 03:02:51;;;;;;;5.23;1.40;;;;;;;;;;5114568;28;20032;-55
2021/04/04 03:05:20;;;;;;;5.93;1.63;;;;;;;;;;5114772;28;20023;-55
2021/04/04 03:07:49;;;;;;;3.53;1.30;;;;;;;;;;5114464;28;20513;-55
2021/04/04 03:10:15;;;;;;;4.27;1.83;;;;;;;;;;5114480;28;20360;-55
2021/04/04 03:12:43;;;;;;;5.83;2.20;;;;;;;;;;5114289;28;20024;-55
2021/04/04 03:15:14;;;;;;;3.27;1.70;;;;;;;;;;5114254;28;20036;-54
2021/04/04 03:17:42;;;;;;;3.10;1.37;;;;;;;;;;5114151;27;20056;-55
2021/04/04 03:20:09;;;;;;;4.00;1.33;;;;;;;;;;5114373;28;20032;-55
2021/04/04 03:22:38;;;;;;;2.70;1.67;;;;;;;;;;5114535;28;20035;-55
2021/04/04 03:25:07;;;;;;;2.83;1.13;;;;;;;;;;5114265;28;20054;-55
2021/04/04 03:27:35;;;;;;;9.07;1.47;;;;;;;;;;5114217;28;20026;-55
2021/04/04 03:30:01;;;;;;;3.53;1.50;;;;;;;;;;5114087;28;20465;-54
2021/04/04 03:32:28;;;;;;;5.30;1.40;;;;;;;;;;5113973;28;20034;-55
2021/04/04 03:34:55;;;;;;;4.47;1.47;;;;;;;;;;5113926;28;20024;-55
2021/04/04 03:37:22;;;;;;;3.77;1.50;;;;;;;;;;5113100;28;20080;-55
2021/04/04 03:39:49;;;;;;;10.50;2.63;;;;;;;;;;5113890;28;20035;-54
2021/04/04 03:42:16;;;;;;;2.33;1.20;;;;;;;;;;5113848;28;20043;-55
2021/04/04 03:44:44;;;;;;;3.90;1.53;;;;;;;;;;5113781;28;20034;-55
2021/04/04 03:47:12;;;;;;;5.53;1.30;;;;;;;;;;5113796;28;20458;-55
2021/04/04 03:49:39;;;;;;;4.07;2.10;;;;;;;;;;5113829;28;20027;-55
2021/04/04 03:52:07;;;;;;;3.00;1.53;;;;;;;;;;5113744;28;20047;-55
2021/04/04 03:54:35;;;;;;;6.67;2.03;;;;;;;;;;5113701;28;20035;-55
2021/04/04 03:57:03;;;;;;;4.20;1.10;;;;;;;;;;5113894;28;20027;-55
2021/04/04 03:59:30;;;;;;;3.33;1.63;;;;;;;;;;5113480;28;20115;-54
2021/04/04 04:01:58;;;;;;;5.97;1.83;;;;;;;;;;5113612;28;20027;-54
2021/04/04 04:04:25;;;;;;;3.90;1.60;;;;;;;;;;5113543;28;20072;-54
2021/04/04 04:06:53;;;;;;;3.30;1.50;;;;;;;;;;5113458;28;20085;-55
2021/04/04 04:09:20;;;;;;;3.17;1.50;;;;;;;;;;5113455;28;20539;-55
2021/04/04 04:11:48;;;;;;;5.50;1.97;;;;;;;;;;5113430;28;20024;-55
2021/04/04 04:14:20;;;;;;;5.40;2.00;;;;;;;;;;5113323;28;20030;-55
2021/04/04 04:16:47;;;;;;;6.87;1.90;;;;;;;;;;5113319;28;20024;-55
2021/04/04 04:19:14;;;;;;;4.70;1.93;;;;;;;;;;5093260;28;20394;-55
2021/04/04 04:21:41;;;;;;;3.70;1.50;;;;;;;;;;5093101;28;20032;-55
2021/04/04 04:24:12;;;;;;;6.67;2.83;;;;;;;;;;5092930;28;20055;-55
2021/04/04 04:26:42;;;;;;;5.90;2.07;;;;;;;;;;5093040;28;20024;-54
2021/04/04 04:29:10;;;;;;;6.53;1.80;;;;;;;;;;5092945;28;20026;-55
2021/04/04 04:31:38;;;;;;;4.73;2.30;;;;;;;;;;5092956;28;20461;-54
2021/04/04 04:34:06;;;;;;;4.43;1.40;;;;;;;;;;5092824;28;20059;-55
2021/04/04 04:36:33;;;;;;;4.73;1.43;;;;;;;;;;5092848;28;20026;-55
2021/04/04 04:39:00;;;;;;;3.37;1.70;;;;;;;;;;5092721;28;20055;-54
2021/04/04 04:41:27;;;;;;;3.07;1.53;;;;;;;;;;5092843;28;20036;-54
2021/04/04 04:43:58;;;;;;;4.87;1.47;;;;;;;;;;5093271;28;20057;-54
2021/04/04 04:46:25;;;;;;;3.53;1.50;;;;;;;;;;5092695;28;20390;-54
2021/04/04 04:48:53;;;;;;;6.73;1.60;;;;;;;;;;5094714;28;20220;-55
2021/04/04 04:51:21;;;;;;;10.53;1.73;;;;;;;;;;5097369;28;20028;-54
2021/04/04 04:53:48;;;;;;;4.33;1.63;;;;;;;;;;5096694;28;20020;-54
2021/04/04 04:56:16;;;;;;;2.93;1.40;;;;;;;;;;5096677;28;20359;-54
2021/04/04 04:58:43;;;;;;;7.57;2.67;;;;;;;;;;5096688;28;20077;-55
2021/04/04 05:01:21;;;;;;;3.53;1.50;;;;;;;;;;5096520;28;20123;-54
2021/04/04 05:03:50;;;;;;;7.17;2.27;;;;;;;;;;5096412;28;20028;-55
2021/04/04 05:06:18;;;;;;;3.93;1.73;;;;;;;;;;5096400;28;20066;-55
2021/04/04 05:08:46;;;;;;;5.03;1.63;;;;;;;;;;5096361;28;20059;-55
2021/04/04 05:11:13;;;;;;;4.13;1.77;;;;;;;;;;5096421;28;20446;-54
2021/04/04 05:13:41;;;;;;;6.47;1.70;;;;;;;;;;5095477;28;20551;-55
2021/04/04 05:16:09;;;;;;;4.30;2.23;;;;;;;;;;5096242;28;20056;-54
2021/04/04 05:18:36;;;;;;;4.80;1.63;;;;;;;;;;5111176;27;20498;-55
2021/04/04 05:21:02;;;;;;;5.97;2.70;;;;;;;;;;5116460;28;20082;-55
2021/04/04 05:23:30;;;;;;;4.80;1.60;;;;;;;;;;5116608;28;20027;-55
2021/04/04 05:25:57;;;;;;;3.83;1.30;;;;;;;;;;5116517;28;20036;-54
2021/04/04 05:28:24;;;;;;;2.70;1.30;;;;;;;;;;5116593;28;20015;-55
2021/04/04 05:30:50;;;;;;;4.70;1.33;;;;;;;;;;5116450;28;20054;-55
2021/04/04 05:33:17;;;;;;;3.30;1.47;;;;;;;;;;5116612;28;20487;-55
2021/04/04 05:35:44;;;;;;;4.20;1.63;;;;;;;;;;5116289;28;20024;-55
2021/04/04 05:38:11;;;;;;;4.33;2.33;;;;;;;;;;5116221;28;20027;-55
2021/04/04 05:40:39;;;;;;;3.20;1.20;;;;;;;;;;5116145;28;20046;-55
2021/04/04 05:43:15;;;;;;;3.07;1.70;;;;;;;;;;5116189;28;20020;-54
2021/04/04 05:45:47;;;;;;;5.13;1.50;;;;;;;;;;5116158;28;20092;-55
2021/04/04 05:48:38;;;;;;;4.80;1.77;;;;;;;;;;5116107;28;20524;-55
2021/04/04 05:51:23;;;;;;;3.73;1.70;;;;;;;;;;5104032;28;20600;-54
2021/04/04 05:54:15;;;;;;;6.05;1.50;;;;;;;;;;5115881;28;20255;-55
2021/04/04 05:56:43;;;;;;;5.60;1.43;;;;;;;;;;5115923;28;20024;-55
2021/04/04 05:59:10;;;;;;;2.73;1.33;;;;;;;;;;5115524;28;20284;-54
2021/04/04 06:01:59;;;;;;;3.20;1.30;;;;;;;;;;5115113;28;20603;-54
2021/04/04 06:04:29;;;;;;;4.10;1.70;;;;;;;;;;5115700;28;20249;-54
2021/04/04 06:07:14;;;;;;;3.50;1.40;;;;;;;;;;5115683;28;20296;-54
2021/04/04 06:09:57;;;;;;;3.17;1.30;;;;;;;;;;5115704;28;20760;-55
2021/04/04 06:12:23;;;;;;;2.90;1.33;;;;;;;;;;5115564;28;20031;-54
2021/04/04 06:14:50;;;;;;;3.87;1.57;;;;;;;;;;5115565;28;20309;-55
2021/04/04 06:17:37;;;;;;;4.17;1.30;;;;;;;;;;5115099;27;20268;-55
2021/04/04 06:20:31;;;;;;;4.07;1.77;;;;;;;;;;5115604;28;20352;-55
2021/04/04 06:23:18;;;;;;;2.83;1.27;;;;;;;;;;5105801;28;20272;-54
2021/04/04 06:25:51;;;;;;;3.33;1.17;;;;;;;;;;5115320;28;20256;-55
2021/04/04 06:28:32;;;;;;;2.83;1.13;;;;;;;;;;5115323;28;20611;-54
2021/04/04 06:30:59;;;;;;;6.23;1.40;;;;;;;;;;5115340;28;20313;-55
2021/04/04 06:33:27;;;;;;;4.87;1.57;;;;;;;;;;5115409;28;20252;-54
2021/04/04 06:36:00;;;;;;;3.87;1.50;;;;;;;;;;5115129;28;20371;-55
2021/04/04 06:38:39;;;;;;;4.57;2.00;;;;;;;;;;5115150;28;20252;-55
2021/04/04 06:41:05;;;;;;;3.37;1.80;;;;;;;;;;5114895;28;20400;-54
2021/04/04 06:43:35;;;;;;;3.17;1.60;;;;;;;;;;5114856;28;20260;-55
2021/04/04 06:46:12;;;;;;;7.13;2.07;;;;;;;;;;5114911;28;20287;-54
2021/04/04 06:48:44;;;;;;;5.93;1.73;;;;;;;;;;5114833;28;20353;-54
2021/04/04 06:51:15;;;;;;;3.03;1.73;;;;;;;;;;5114880;28;20320;-54
2021/04/04 06:54:00;;;;;;;5.77;1.57;;;;;;;;;;5114625;28;20264;-54
2021/04/04 06:56:29;;;;;;;28.02;2.95;;;;;;;;;;5114796;28;20256;-54
2021/04/04 06:59:14;;;;;;;5.23;1.77;;;;;;;;;;5114676;28;20027;-54
2021/04/04 07:01:59;;;;;;;5.07;1.70;;;;;;;;;;5114615;28;20615;-55
2021/04/04 07:04:33;;;;;;;3.07;1.50;;;;;;;;;;5114491;28;20027;-54
2021/04/04 07:07:11;;;;;;;3.63;1.55;;;;;;;;;;5114513;28;20259;-54
2021/04/04 07:09:37;;;;;;;5.37;1.93;;;;;;;;;;5114469;28;20028;-55
2021/04/04 07:12:07;;;;;;;4.97;2.10;;;;;;;;;;5114292;28;20284;-54
2021/04/04 07:14:43;;;;;;;3.70;1.70;;;;;;;;;;5114391;28;20726;-54
2021/04/04 07:17:30;;;;;;;8.83;2.00;;;;;;;;;;5113785;28;20760;-55
2021/04/04 07:20:06;;;;;;;4.27;1.83;;;;;;;;;;5079335;28;20284;-55
2021/04/04 07:22:42;;;;;;;6.13;1.87;;;;;;;;;;5114292;28;20256;-55
2021/04/04 07:25:15;;;;;;;5.60;2.10;;;;;;;;;;5114552;28;20251;-54
2021/04/04 07:27:48;;;;;;;5.03;2.03;;;;;;;;;;5114102;28;20256;-54
2021/04/04 07:30:31;;;;;;;5.67;1.67;;;;;;;;;;5114179;28;20252;-54
2021/04/04 07:33:08;;;;;;;7.07;2.80;;;;;;;;;;5114163;28;20252;-54
2021/04/04 07:35:40;;;;;;;4.10;2.17;;;;;;;;;;5114059;28;20278;-54
2021/04/04 07:38:13;;;;;;;5.90;2.87;;;;;;;;;;5114074;28;20664;-54
2021/04/04 07:40:50;;;;;;;3.87;2.00;;;;;;;;;;5113857;28;20291;-54
2021/04/04 07:43:22;;;;;;;6.57;1.90;;;;;;;;;;5114049;28;20607;-55
2021/04/04 07:46:07;;;;;;;4.03;1.73;;;;;;;;;;5113774;28;20718;-54
2021/04/04 07:48:44;;;;;;;5.78;2.25;;;;;;;;;;5113783;28;20334;-55
2021/04/04 07:51:14;;;;;;;4.20;1.63;;;;;;;;;;5113727;28;20106;-54
2021/04/04 07:53:44;;;;;;;3.77;2.00;;;;;;;;;;5113570;28;20244;-55
2021/04/04 07:56:21;;;;;;;4.37;1.60;;;;;;;;;;5113724;28;20727;-55
2021/04/04 07:58:54;;;;;;;3.33;1.60;;;;;;;;;;5113677;28;20259;-55
2021/04/04 08:01:34;;;;;;;5.27;1.83;;;;;;;;;;5113509;28;20276;-55
2021/04/04 08:04:01;;;;;;;5.33;1.80;;;;;;;;;;5113465;28;20256;-54
2021/04/04 08:06:31;;;;;;;3.20;1.70;;;;;;;;;;5113583;28;20283;-54
2021/04/04 08:09:08;;;;;;;5.70;2.00;;;;;;;;;;5113471;28;20251;-54
2021/04/04 08:11:55;;;;;;;3.57;1.80;;;;;;;;;;5113536;28;20248;-54
2021/04/04 08:14:27;;;;;;;3.17;1.60;;;;;;;;;;5096294;28;20264;-54
2021/04/04 08:17:00;;;;;;;5.00;2.00;;;;;;;;;;5113334;28;20327;-54
2021/04/04 08:19:40;;;;;;;3.20;1.53;;;;;;;;;;5112796;28;20418;-54
2021/04/04 08:22:09;;;;;;;3.53;1.67;;;;;;;;;;5113213;28;20304;-54
2021/04/04 08:24:43;;;;;;;4.43;1.70;;;;;;;;;;5112864;28;20251;-54
2021/04/04 08:27:25;;;;;;;4.57;1.93;;;;;;;;;;5113168;28;20753;-55
2021/04/04 08:29:58;;;;;;;4.90;1.73;;;;;;;;;;5113280;28;20750;-54
2021/04/04 08:32:30;;;;;;;3.47;1.80;;;;;;;;;;5113187;28;20260;-54
2021/04/04 08:34:58;;;;;;;5.37;2.00;;;;;;;;;;5113114;28;20653;-54
2021/04/04 08:37:31;;;;;;;6.07;1.77;;;;;;;;;;5113127;28;20248;-54
2021/04/04 08:40:03;;;;;;;5.63;1.70;;;;;;;;;;5112967;28;20780;-54
2021/04/04 08:42:32;;;;;;;2.80;1.50;;;;;;;;;;5112781;28;20256;-54
2021/04/04 08:45:19;;;;;;;2.83;1.40;;;;;;;;;;5112938;28;20316;-54
2021/04/04 08:47:47;;;;;;;2.00;1.20;;;;;;;;;;5095743;28;20297;-54
2021/04/04 08:50:16;;;;;;;4.73;1.40;;;;;;;;;;5113017;28;20248;-54
2021/04/04 08:52:46;;;;;;;3.10;1.37;;;;;;;;;;5112923;28;20718;-54
2021/04/04 08:55:14;;;;;;;1.93;1.23;;;;;;;;;;5112958;28;20264;-54
2021/04/04 08:57:46;;;;;;;5.50;2.00;;;;;;;;;;5113064;28;20288;-55
2021/04/04 09:00:14;;;;;;;4.30;1.80;;;;;;;;;;5112795;28;20329;-54
2021/04/04 09:02:52;;;;;;;4.27;1.70;;;;;;;;;;5112795;28;20356;-54
2021/04/04 09:05:21;;;;;;;3.27;1.60;;;;;;;;;;5112862;28;20761;-54
2021/04/04 09:07:48;;;;;;;3.80;1.50;;;;;;;;;;5112966;28;20256;-54
2021/04/04 09:10:16;;;;;;;2.57;1.40;;;;;;;;;;5112858;28;20347;-54
2021/04/04 09:12:44;;;;;;;5.67;1.73;;;;;;;;;;5112734;28;20331;-54
2021/04/04 09:15:13;;;;;;;4.00;1.47;;;;;;;;;;5113125;28;20243;-54
2021/04/04 09:17:49;;;;;;;3.60;1.90;;;;;;;;;;5112466;28;20284;-54
2021/04/04 09:20:16;;;;;;;6.80;2.70;;;;;;;;;;5112755;28;20288;-54
2021/04/04 09:22:47;;;;;;;5.23;2.70;;;;;;;;;;5112800;28;20287;-54
2021/04/04 09:25:14;;;;;;;8.23;4.03;;;;;;;;;;5112614;28;20260;-54
2021/04/04 09:27:42;;;;;;;9.73;3.93;;;;;;;;;;5112763;28;20283;-54
2021/04/04 09:30:34;;;;;;;8.00;3.10;;;;;;;;;;5112687;28;20345;-54
2021/04/04 09:33:02;;;;;;;6.90;3.40;;;;;;;;;;5112675;28;20264;-54
2021/04/04 09:35:29;;;;;;;4.47;2.10;;;;;;;;;;5113916;28;20255;-54
2021/04/04 09:38:06;;;;;;;4.17;1.93;;;;;;;;;;5116312;28;20358;-54
2021/04/04 09:40:33;;;;;;;3.40;1.57;;;;;;;;;;5116192;28;20288;-54
2021/04/04 09:43:10;;;;;;;3.93;1.70;;;;;;;;;;5116281;28;20357;-54
2021/04/04 09:45:37;;;;;;;3.30;1.63;;;;;;;;;;5116144;28;20263;-54
2021/04/04 09:48:36;;;;;;;3.07;1.60;;;;;;;;;;5116281;28;20338;-54
2021/04/04 09:51:10;;;;;;;4.03;1.70;;;;;;;;;;5060442;28;20264;-54
2021/04/04 09:53:37;;;;;;;4.23;2.30;;;;;;;;;;5115910;28;20375;-54
2021/04/04 09:56:08;;;;;;;2.77;1.30;;;;;;;;;;5116000;28;20248;-55
2021/04/04 09:58:38;;;;;;;3.30;1.50;;;;;;;;;;5115965;28;20243;-55
2021/04/04 10:01:13;;;;;;;3.37;1.07;;;;;;;;;;5115780;28;20785;-54
2021/04/04 10:03:40;;;;;;;2.60;1.20;;;;;;;;;;5115730;28;20264;-54
2021/04/04 10:06:13;;;;;;;1.90;1.10;;;;;;;;;;5115828;28;20622;-54
2021/04/04 10:08:52;;;;;;;1.70;0.97;;;;;;;;;;5115703;28;20274;-54
2021/04/04 10:11:19;;;;;;;5.03;1.20;;;;;;;;;;5115670;28;20252;-54
2021/04/04 10:13:46;;;;;;;2.63;1.30;;;;;;;;;;5115572;28;20248;-54
2021/04/04 10:16:20;;;;;;;4.23;1.40;;;;;;;;;;5115526;28;20256;-55
2021/04/04 10:19:10;;;;;;;5.30;1.20;;;;;;;;;;5083216;28;20296;-54
2021/04/04 10:21:41;;;;;;;1.63;1.03;;;;;;;;;;5066939;28;20324;-55
2021/04/04 10:24:26;;;;;;;1.93;0.90;;;;;;;;;;5074804;28;20254;-54
2021/04/04 10:27:11;;;;;;;3.53;1.17;;;;;;;;;;5074820;28;20253;-54
2021/04/04 10:29:38;;;;;;;27.50;13.07;;;;;;;;;;5074748;28;20253;-54
2021/04/04 10:32:05;;;;;;;14.60;6.27;;;;;;;;;;5074620;28;20017;-54
2021/04/04 10:34:45;;;;;;;10.80;5.07;;;;;;;;;;5074665;28;20316;-54
2021/04/04 10:37:12;;;;;;;8.77;4.63;;;;;;;;;;5074484;28;20257;-54
2021/04/04 10:39:39;;;;;;;6.73;3.10;;;;;;;;;;5074468;28;20304;-54
2021/04/04 10:42:15;;;;;;;4.63;1.90;;;;;;;;;;5074419;28;20254;-54
2021/04/04 10:44:43;;;;;;;3.97;1.60;;;;;;;;;;5074427;28;20332;-54
2021/04/04 10:47:19;;;;;;;1.80;1.20;;;;;;;;;;5074235;28;20252;-54
2021/04/04 10:49:48;;;;;;;2.83;0.93;;;;;;;;;;5074417;28;20254;-55
2021/04/04 10:52:14;;;;;;;1.53;0.90;;;;;;;;;;5074252;28;20258;-54
2021/04/04 10:54:42;;;;;;;4.97;3.07;;;;;;;;;;5074353;28;20273;-54
2021/04/04 10:57:10;;;;;;;2.37;1.37;;;;;;;;;;5074215;28;20265;-52
2021/04/04 10:59:37;;;;;;;2.10;1.13;;;;;;;;;;5073980;28;20277;-52
2021/04/04 11:02:04;;;;;;;1.73;1.03;;;;;;;;;;5073941;28;20631;-52
2021/04/04 11:04:34;;;;;;;3.37;1.73;;;;;;;;;;5073995;28;20289;-52
2021/04/04 11:07:00;;;;;;;11.50;4.57;;;;;;;;;;5073942;28;20293;-52
2021/04/04 11:09:27;;;;;;;10.37;3.83;;;;;;;;;;5073913;28;20325;-53
2021/04/04 11:12:00;;;;;;;14.93;5.43;;;;;;;;;;5073823;28;20352;-52
2021/04/04 11:14:28;;;;;;;10.63;4.60;;;;;;;;;;5073806;28;20657;-52
2021/04/04 11:16:56;;;;;;;8.90;3.03;;;;;;;;;;5073686;28;20265;-52
2021/04/04 11:19:24;;;;;;;5.37;2.47;;;;;;;;;;5105059;28;20440;-52
2021/04/04 11:21:52;;;;;;;4.90;2.50;;;;;;;;;;5114300;28;20260;-51
2021/04/04 11:24:19;;;;;;;5.10;2.17;;;;;;;;;;5114303;28;20307;-52
2021/04/04 11:26:59;;;;;;;4.87;1.93;;;;;;;;;;5114302;28;20291;-52
2021/04/04 11:29:27;;;;;;;3.40;1.30;;;;;;;;;;5114468;28;20248;-52
2021/04/04 11:31:57;;;;;;;2.43;1.10;;;;;;;;;;5113989;28;20335;-52
2021/04/04 11:34:26;;;;;;;4.60;1.33;;;;;;;;;;5113997;28;20722;-52
2021/04/04 11:36:53;;;;;;;2.37;1.20;;;;;;;;;;5114304;28;20260;-52
2021/04/04 11:39:20;;;;;;;2.23;1.10;;;;;;;;;;5095873;28;20246;-53
2021/04/04 11:41:57;;;;;;;6.37;1.30;;;;;;;;;;5113857;28;20622;-52
2021/04/04 11:44:29;;;;;;;1.47;1.00;;;;;;;;;;5113815;28;20255;-52
2021/04/04 11:46:57;;;;;;;1.97;0.93;;;;;;;;;;5113804;28;20260;-52
2021/04/04 11:49:36;;;;;;;6.87;3.00;;;;;;;;;;5113743;28;20345;-52
2021/04/04 11:52:09;;;;;;;2.50;1.00;;;;;;;;;;5113819;28;20259;-52
2021/04/04 11:54:51;;;;;;;2.87;0.93;;;;;;;;;;5113818;28;20595;-52
2021/04/04 11:57:22;;;;;;;1.77;0.80;;;;;;;;;;5113329;28;20267;-52
2021/04/04 11:59:56;;;;;;;3.17;1.43;;;;;;;;;;5113273;28;20268;-52
2021/04/04 12:02:27;;;;;;;2.13;1.27;;;;;;;;;;5113571;28;20260;-52
2021/04/04 12:05:04;;;;;;;4.60;1.20;;;;;;;;;;5113492;28;20252;-52
2021/04/04 12:07:31;;;;;;;2.00;1.07;;;;;;;;;;5113573;28;20264;-52
2021/04/04 12:09:58;;;;;;;2.13;0.87;;;;;;;;;;5113464;28;20251;-52
2021/04/04 12:12:31;;;;;;;2.53;1.00;;;;;;;;;;5113453;28;20255;-52
2021/04/04 12:14:59;;;;;;;3.43;0.90;;;;;;;;;;5113470;28;20259;-52
2021/04/04 12:17:26;;;;;;;2.93;1.03;;;;;;;;;;5113260;28;20256;-52
2021/04/04 12:19:54;;;;;;;2.30;1.27;;;;;;;;;;5112912;28;20299;-52
2021/04/04 12:22:21;;;;;;;1.87;1.03;;;;;;;;;;5113442;28;20727;-52
2021/04/04 12:24:52;;;;;;;2.70;1.30;;;;;;;;;;5113223;28;20719;-52
2021/04/04 12:27:18;;;;;;;3.03;1.17;;;;;;;;;;5113266;28;20268;-52
2021/04/04 12:29:49;;;;;;;2.40;1.20;;;;;;;;;;5113353;28;20256;-52
2021/04/04 12:32:20;;;;;;;2.57;1.47;;;;;;;;;;5113233;28;20248;-52
2021/04/04 12:34:47;;;;;;;4.03;1.77;;;;;;;;;;5113152;28;20283;-52
2021/04/04 12:37:15;;;;;;;4.10;2.63;;;;;;;;;;5113161;28;20327;-52
2021/04/04 12:39:42;;;;;;;6.07;1.70;;;;;;;;;;5113184;28;20367;-52
2021/04/04 12:42:10;;;;;;;5.77;1.57;;;;;;;;;;5113100;28;20333;-52
2021/04/04 12:44:38;;;;;;;4.93;2.10;;;;;;;;;;5113051;28;20252;-52
2021/04/04 12:47:12;;;;;;;1.93;1.10;;;;;;;;;;5113104;28;20260;-52
2021/04/04 12:49:39;;;;;;;3.17;1.55;;;;;;;;;;5113094;28;20660;-52
2021/04/04 12:52:07;;;;;;;2.20;1.00;;;;;;;;;;5113029;28;20390;-52
2021/04/04 12:54:34;;;;;;;5.50;1.30;;;;;;;;;;5112992;28;20248;-52
2021/04/04 12:57:01;;;;;;;3.60;1.13;;;;;;;;;;5113107;28;20260;-52
2021/04/04 12:59:28;;;;;;;7.27;1.23;;;;;;;;;;5094777;28;20316;-52
2021/04/04 13:01:55;;;;;;;3.37;1.57;;;;;;;;;;5112915;28;20607;-52
2021/04/04 13:04:23;;;;;;;2.47;1.47;;;;;;;;;;5113014;28;20283;-52
2021/04/04 13:06:51;;;;;;;10.40;1.30;;;;;;;;;;5112854;28;20821;-52
2021/04/04 13:09:18;;;;;;;2.13;0.90;;;;;;;;;;5114016;28;20259;-52
2021/04/04 13:11:45;;;;;;;2.77;1.30;;;;;;;;;;5116818;28;20321;-52
2021/04/04 13:14:15;;;;;;;3.70;1.30;;;;;;;;;;5116871;28;20259;-53
2021/04/04 13:16:42;;;;;;;5.53;1.57;;;;;;;;;;5116723;28;20248;-52
2021/04/04 13:19:10;;;;;;;8.37;1.93;;;;;;;;;;5116256;27;20371;-52
2021/04/04 13:21:37;;;;;;;2.67;1.50;;;;;;;;;;5116525;28;20291;-52
2021/04/04 13:24:14;;;;;;;5.00;1.27;;;;;;;;;;5116610;28;20614;-55
2021/04/04 13:26:45;;;;;;;3.57;1.23;;;;;;;;;;5116661;28;20264;-55
2021/04/04 13:29:12;;;;;;;9.47;2.10;;;;;;;;;;5116532;28;20256;-55
2021/04/04 13:31:40;;;;;;;5.63;1.97;;;;;;;;;;5116429;28;20252;-55
2021/04/04 13:34:08;;;;;;;4.83;1.77;;;;;;;;;;5116487;28;20329;-55
2021/04/04 13:36:35;;;;;;;6.40;2.27;;;;;;;;;;5116691;28;20588;-55
2021/04/04 13:39:04;;;;;;;6.30;1.87;;;;;;;;;;5116252;28;20263;-55
2021/04/04 13:41:31;;;;;;;5.47;1.60;;;;;;;;;;5116424;28;20288;-55
2021/04/04 13:43:59;;;;;;;5.87;1.60;;;;;;;;;;5116150;28;20768;-55
2021/04/04 13:46:29;;;;;;;4.80;2.40;;;;;;;;;;5116234;28;20256;-55
2021/04/04 13:48:57;;;;;;;5.63;3.00;;;;;;;;;;5116152;28;20327;-55
2021/04/04 13:51:24;;;;;;;6.53;1.97;;;;;;;;;;5116164;28;20252;-55
2021/04/04 13:54:02;;;;;;;4.67;2.13;;;;;;;;;;5116022;28;20252;-55
2021/04/04 13:56:44;;;;;;;6.13;2.23;;;;;;;;;;5115944;28;20264;-55
2021/04/04 13:59:15;;;;;;;6.37;2.00;;;;;;;;;;5115941;28;20256;-55
2021/04/04 14:01:43;;;;;;;5.30;1.77;;;;;;;;;;5115741;28;20165;-55
2021/04/04 14:04:10;;;;;;;7.03;2.37;;;;;;;;;;5115908;28;20103;-55
2021/04/04 14:06:38;;;;;;;4.33;2.00;;;;;;;;;;5115662;28;20107;-55
2021/04/04 14:09:08;;;;;;;8.60;2.77;;;;;;;;;;5115733;28;20070;-55
2021/04/04 14:11:36;;;;;;;4.33;1.30;;;;;;;;;;5115766;28;20023;-55
2021/04/04 14:14:06;;;;;;;4.83;1.30;;;;;;;;;;5115708;28;20035;-55
2021/04/04 14:16:34;;;;;;;2.93;1.20;;;;;;;;;;5115504;28;20178;-55
2021/04/04 14:19:01;;;;;;;3.80;1.43;;;;;;;;;;5115192;27;20052;-55
2021/04/04 14:21:28;;;;;;;2.80;1.13;;;;;;;;;;5114567;28;20044;-56
2021/04/04 14:23:55;;;;;;;6.70;1.77;;;;;;;;;;5115428;28;20027;-55
2021/04/04 14:26:22;;;;;;;3.60;1.60;;;;;;;;;;5115498;28;20419;-55
2021/04/04 14:28:48;;;;;;;4.07;1.53;;;;;;;;;;5115473;28;20023;-55
2021/04/04 14:31:15;;;;;;;5.70;1.97;;;;;;;;;;5115344;28;20059;-55
2021/04/04 14:33:42;;;;;;;4.80;1.50;;;;;;;;;;5115265;28;20019;-55
2021/04/04 14:36:10;;;;;;;2.47;1.17;;;;;;;;;;5115264;28;20031;-55
2021/04/04 14:38:37;;;;;;;2.20;0.93;;;;;;;;;;5115283;28;20024;-55
2021/04/04 14:41:04;;;;;;;2.67;1.40;;;;;;;;;;5115086;28;20042;-55
2021/04/04 14:43:39;;;;;;;3.27;1.20;;;;;;;;;;5115101;28;20289;-55
2021/04/04 14:46:06;;;;;;;5.17;1.20;;;;;;;;;;5115349;28;20430;-55
2021/04/04 14:48:33;;;;;;;3.23;0.93;;;;;;;;;;5115010;28;20023;-55
2021/04/04 14:51:01;;;;;;;2.40;1.20;;;;;;;;;;5114884;28;20028;-55
2021/04/04 14:53:28;;;;;;;3.43;1.23;;;;;;;;;;5114841;28;20028;-55
2021/04/04 14:55:56;;;;;;;6.53;1.50;;;;;;;;;;5114835;28;20058;-55
2021/04/04 14:58:23;;;;;;;2.93;1.20;;;;;;;;;;5114875;28;20023;-55
2021/04/04 15:00:51;;;;;;;2.37;0.83;;;;;;;;;;5114602;28;20523;-55
2021/04/04 15:03:18;;;;;;;3.33;1.07;;;;;;;;;;5114748;28;20024;-55